createdAt,value
2019-05-22T00:01:37.161Z,56.23
2019-05-22T00:04:24.252Z,51.23
2019-05-22T00:06:54.725Z,58.35
2019-05-22T00:09:28.344Z,54.77
2019-05-22T00:11:58.777Z,58.10
2019-05-22T00:14:28.328Z,60.05
2019-05-22T00:16:59.386Z,58.55
2019-05-22T00:19:30.373Z,52.67
2019-05-22T00:22:09.514Z,53.63
2019-05-22T00:24:42.114Z,55.50
2019-05-22T00:27:12.358Z,61.73
2019-05-22T00:29:43.695Z,60.05
2019-05-22T00:32:14.076Z,62.03
2019-05-22T00:34:42.852Z,58.42
2019-05-22T00:37:11.761Z,64.65
2019-05-22T00:39:41.171Z,67.65
2019-05-22T00:42:11.327Z,68.95
2019-05-22T00:44:41.893Z,68.22
2019-05-22T00:47:14.654Z,64.22
2019-05-22T00:49:46.441Z,65.03
2019-05-22T00:52:36.608Z,67.15
2019-05-22T00:55:14.159Z,66.20
2019-05-22T00:57:56.204Z,61.92
2019-05-22T01:00:35.200Z,62.50
2019-05-22T01:03:06.273Z,62.98
2019-05-22T01:05:37.456Z,64.62
2019-05-22T01:08:06.941Z,66.10
2019-05-22T01:10:39.171Z,64.00
2019-05-22T01:13:09.751Z,60.08
2019-05-22T01:15:40.733Z,60.12
2019-05-22T01:18:12.534Z,56.98
2019-05-22T01:20:42.682Z,68.47
2019-05-22T01:23:17.841Z,63.55
2019-05-22T01:25:47.875Z,56.90
2019-05-22T01:28:17.549Z,60.58
2019-05-22T01:31:06.612Z,59.13
2019-05-22T01:33:44.354Z,54.70
2019-05-22T01:36:32.486Z,56.90
2019-05-22T01:39:16.831Z,58.30
2019-05-22T01:41:50.344Z,48.80
2019-05-22T01:44:21.067Z,48.45
2019-05-22T01:46:51.347Z,53.08
2019-05-22T01:49:21.944Z,50.65
2019-05-22T01:51:51.151Z,54.20
2019-05-22T01:54:21.745Z,47.67
2019-05-22T01:56:51.605Z,49.70
2019-05-22T01:59:21.551Z,38.73
2019-05-22T02:01:51.947Z,47.95
2019-05-22T02:04:21.913Z,38.17
2019-05-22T02:06:51.421Z,39.05
2019-05-22T02:09:30.736Z,37.15
2019-05-22T02:12:08.190Z,41.48
2019-05-22T02:14:41.532Z,35.92
2019-05-22T02:17:12.064Z,41.13
2019-05-22T02:19:41.845Z,40.40
2019-05-22T02:22:12.985Z,38.95
2019-05-22T02:24:42.027Z,39.23
2019-05-22T02:27:12.749Z,40.90
2019-05-22T02:29:41.698Z,43.38
2019-05-22T02:32:13.836Z,47.90
2019-05-22T02:34:43.958Z,47.08
2019-05-22T02:37:14.316Z,52.00
2019-05-22T02:39:43.003Z,51.37
2019-05-22T02:42:16.237Z,53.33
2019-05-22T02:47:19.682Z,47.10
2019-05-22T02:49:48.788Z,38.60
2019-05-22T02:52:17.462Z,36.15
2019-05-22T02:54:47.418Z,40.85
2019-05-22T02:57:16.636Z,35.30
2019-05-22T02:59:45.879Z,38.85
2019-05-22T03:02:15.731Z,39.95
2019-05-22T03:05:07.088Z,38.63
2019-05-22T03:07:36.886Z,35.25
2019-05-22T03:10:07.913Z,38.00
2019-05-22T03:12:38.609Z,36.73
2019-05-22T03:15:13.206Z,33.13
2019-05-22T03:17:45.541Z,37.53
2019-05-22T03:20:21.028Z,33.07
2019-05-22T03:23:28.130Z,36.77
2019-05-22T03:25:56.992Z,32.13
2019-05-22T03:28:26.932Z,32.95
2019-05-22T03:30:55.619Z,34.33
2019-05-22T03:33:24.763Z,35.08
2019-05-22T03:36:05.688Z,34.33
2019-05-22T03:38:34.373Z,38.42
2019-05-22T03:41:04.136Z,43.58
2019-05-22T03:43:33.378Z,40.80
2019-05-22T03:46:10.946Z,44.70
2019-05-22T03:48:40.283Z,60.23
2019-05-22T03:51:13.358Z,54.27
2019-05-22T03:53:43.769Z,65.10
2019-05-22T03:56:13.293Z,69.30
2019-05-22T03:58:42.115Z,62.33
2019-05-22T04:01:12.397Z,63.87
2019-05-22T04:03:41.068Z,71.97
2019-05-22T04:06:09.859Z,69.45
2019-05-22T04:08:39.227Z,62.60
2019-05-22T04:11:10.237Z,71.97
2019-05-22T04:13:40.059Z,69.67
2019-05-22T04:16:12.635Z,63.48
2019-05-22T04:18:41.718Z,63.65
2019-05-22T04:21:10.637Z,75.00
2019-05-22T04:23:39.890Z,63.92
2019-05-22T04:26:11.836Z,62.35
2019-05-22T04:28:54.972Z,68.60
2019-05-22T04:31:39.183Z,66.70
2019-05-22T04:34:07.857Z,64.55
2019-05-22T04:36:37.574Z,55.90
2019-05-22T04:39:11.451Z,51.23
2019-05-22T04:41:40.623Z,63.15
2019-05-22T04:44:09.308Z,59.83
2019-05-22T04:46:38.262Z,62.62
2019-05-22T04:49:07.706Z,61.55
2019-05-22T04:51:36.403Z,65.30
2019-05-22T04:54:05.121Z,54.40
2019-05-22T04:56:33.977Z,62.67
2019-05-22T04:59:03.564Z,57.50
2019-05-22T05:01:32.533Z,60.10
2019-05-22T05:04:01.415Z,45.70
2019-05-22T05:06:33.712Z,48.83
2019-05-22T05:09:03.969Z,48.97
2019-05-22T05:11:33.853Z,50.50
2019-05-22T05:14:02.539Z,47.58
2019-05-22T05:16:31.283Z,50.17
2019-05-22T05:19:00.367Z,49.88
2019-05-22T05:21:29.202Z,54.65
2019-05-22T05:23:57.903Z,55.03
2019-05-22T05:26:26.731Z,50.90
2019-05-22T05:28:55.755Z,52.88
2019-05-22T05:31:25.720Z,51.23
2019-05-22T05:34:27.420Z,43.25
2019-05-22T05:36:57.225Z,42.27
2019-05-22T05:40:08.201Z,46.23
2019-05-22T05:42:37.944Z,52.55
2019-05-22T05:45:08.864Z,43.87
2019-05-22T05:47:38.634Z,40.30
2019-05-22T05:50:10.512Z,55.58
2019-05-22T05:52:40.246Z,46.75
2019-05-22T05:55:09.559Z,49.93
2019-05-22T05:58:22.926Z,44.98
2019-05-22T06:00:56.240Z,43.00
2019-05-22T06:03:34.581Z,42.67
2019-05-22T06:06:12.482Z,47.45
2019-05-22T06:08:41.926Z,41.55
2019-05-22T06:11:45.017Z,37.42
2019-05-22T06:14:22.194Z,47.07
2019-05-22T06:17:40.292Z,45.58
2019-05-22T06:20:11.753Z,36.15
2019-05-22T06:22:43.413Z,39.42
2019-05-22T06:25:13.940Z,42.35
2019-05-22T06:27:44.458Z,46.00
2019-05-22T06:30:19.123Z,33.13
2019-05-22T06:33:28.832Z,36.13
2019-05-22T06:35:57.988Z,33.42
2019-05-22T06:39:00.737Z,38.58
2019-05-22T06:41:35.241Z,32.10
2019-05-22T06:44:28.299Z,35.80
2019-05-22T06:46:57.567Z,32.42
2019-05-22T06:49:51.696Z,25.60
2019-05-22T06:52:20.907Z,27.48
2019-05-22T06:54:50.648Z,28.00
2019-05-22T06:57:25.416Z,23.50
2019-05-22T07:00:12.009Z,31.15
2019-05-22T07:02:26.988Z,27.05
2019-05-22T07:04:55.756Z,32.17
2019-05-22T07:07:28.550Z,29.40
2019-05-22T07:09:57.817Z,28.10
2019-05-22T07:12:28.207Z,34.88
2019-05-22T07:15:28.477Z,34.83
2019-05-22T07:17:57.669Z,27.58
2019-05-22T07:20:28.501Z,23.05
2019-05-22T07:22:58.766Z,25.10
2019-05-22T07:25:29.034Z,25.25
2019-05-22T07:27:58.486Z,26.62
2019-05-22T07:30:27.308Z,27.15
2019-05-22T07:32:56.526Z,30.68
2019-05-22T07:35:45.640Z,26.50
2019-05-22T07:37:58.216Z,23.85
2019-05-22T07:40:27.012Z,26.52
2019-05-22T07:42:56.453Z,21.80
2019-05-22T07:45:28.147Z,18.62
2019-05-22T07:47:58.271Z,16.82
2019-05-22T07:50:29.187Z,19.85
2019-05-22T07:52:58.544Z,17.62
2019-05-22T07:55:28.274Z,19.60
2019-05-22T07:58:11.739Z,18.12
2019-05-22T08:03:12.984Z,13.50
2019-05-22T08:05:45.222Z,13.80
2019-05-22T08:08:18.722Z,13.45
2019-05-22T08:10:47.297Z,19.73
2019-05-22T08:13:15.965Z,15.83
2019-05-22T08:15:47.882Z,19.27
2019-05-22T08:18:17.232Z,14.43
2019-05-22T08:20:46.028Z,14.05
2019-05-22T08:23:15.350Z,18.05
2019-05-22T08:25:44.303Z,14.93
2019-05-22T08:28:13.623Z,15.43
2019-05-22T08:30:42.429Z,14.38
2019-05-22T08:33:14.153Z,13.30
2019-05-22T08:35:44.712Z,14.07
2019-05-22T08:38:13.852Z,15.85
2019-05-22T08:40:43.437Z,13.93
2019-05-22T08:43:13.128Z,17.20
2019-05-22T08:45:41.952Z,11.55
2019-05-22T08:48:12.141Z,13.58
2019-05-22T08:50:44.182Z,15.48
2019-05-22T08:53:14.760Z,15.28
2019-05-22T08:55:44.496Z,14.45
2019-05-22T08:58:14.700Z,14.40
2019-05-22T09:00:43.794Z,13.58
2019-05-22T09:03:12.867Z,15.63
2019-05-22T09:05:41.712Z,13.10
2019-05-22T09:08:10.497Z,8.90
2019-05-22T09:10:39.234Z,15.13
2019-05-22T09:13:08.162Z,14.90
2019-05-22T09:15:38.408Z,18.55
2019-05-22T09:18:08.429Z,19.27
2019-05-22T09:20:48.642Z,18.35
2019-05-22T09:23:09.647Z,23.15
2019-05-22T09:25:38.308Z,24.75
2019-05-22T09:28:07.914Z,20.60
2019-05-22T09:30:36.694Z,22.40
2019-05-22T09:33:06.405Z,20.15
2019-05-22T09:35:35.454Z,21.45
2019-05-22T09:38:04.428Z,20.05
2019-05-22T09:40:33.161Z,23.50
2019-05-22T09:43:02.235Z,20.10
2019-05-22T09:45:31.629Z,18.25
2019-05-22T09:48:00.959Z,18.52
2019-05-22T09:50:30.163Z,16.67
2019-05-22T09:52:59.377Z,14.87
2019-05-22T09:55:28.719Z,14.75
2019-05-22T09:57:57.463Z,11.20
2019-05-22T10:00:27.258Z,12.05
2019-05-22T10:02:56.105Z,15.58
2019-05-22T10:05:25.495Z,10.03
2019-05-22T10:08:01.121Z,9.70
2019-05-22T10:10:26.784Z,13.03
2019-05-22T10:12:55.626Z,13.53
2019-05-22T10:15:25.546Z,11.48
2019-05-22T10:17:54.692Z,10.10
2019-05-22T10:20:24.024Z,10.53
2019-05-22T10:22:52.775Z,13.00
2019-05-22T10:25:21.971Z,8.70
2019-05-22T10:27:50.782Z,8.55
2019-05-22T10:30:22.615Z,7.78
2019-05-22T10:32:51.647Z,8.75
2019-05-22T10:35:23.206Z,10.38
2019-05-22T10:37:52.122Z,8.68
2019-05-22T10:40:21.582Z,9.80
2019-05-22T10:42:50.327Z,10.63
2019-05-22T10:45:19.370Z,13.30
2019-05-22T10:47:49.799Z,12.05
2019-05-22T10:50:19.312Z,10.70
2019-05-22T10:52:53.927Z,10.75
2019-05-22T10:55:20.836Z,13.43
2019-05-22T10:57:49.835Z,12.58
2019-05-22T11:00:20.820Z,11.28
2019-05-22T11:02:50.125Z,9.90
2019-05-22T11:05:21.413Z,13.20
2019-05-22T11:07:51.567Z,12.20
2019-05-22T11:10:22.824Z,12.55
2019-05-22T11:12:51.767Z,11.10
2019-05-22T11:15:21.734Z,11.35
2019-05-22T11:17:50.598Z,16.70
2019-05-22T11:20:19.894Z,13.20
2019-05-22T11:22:49.324Z,13.00
2019-05-22T11:25:18.892Z,10.20
2019-05-22T11:27:47.697Z,9.43
2019-05-22T11:30:17.513Z,14.47
2019-05-22T11:32:46.629Z,11.33
2019-05-22T11:35:17.032Z,10.72
2019-05-22T11:37:47.446Z,17.27
2019-05-22T11:40:17.913Z,8.30
2019-05-22T11:42:46.951Z,16.02
2019-05-22T11:45:16.756Z,10.28
2019-05-22T11:47:45.717Z,10.50
2019-05-22T11:50:16.679Z,9.85
2019-05-22T11:52:46.611Z,9.70
2019-05-22T11:55:16.722Z,14.23
2019-05-22T11:57:46.915Z,9.70
2019-05-22T12:00:18.267Z,11.48
2019-05-22T12:02:47.935Z,44.80
2019-05-22T12:05:17.277Z,10.18
2019-05-22T12:07:47.938Z,14.00
2019-05-22T12:10:19.581Z,12.05
2019-05-22T12:12:49.475Z,15.70
2019-05-22T12:15:22.157Z,17.10
2019-05-22T12:17:50.907Z,11.05
2019-05-22T12:20:20.911Z,12.23
2019-05-22T12:22:49.635Z,12.60
2019-05-22T12:25:18.953Z,12.33
2019-05-22T12:27:48.044Z,13.13
2019-05-22T12:30:18.908Z,13.62
2019-05-22T12:32:48.204Z,13.15
2019-05-22T12:35:17.934Z,11.53
2019-05-22T12:37:47.010Z,10.48
2019-05-22T12:40:19.086Z,10.60
2019-05-22T12:42:48.684Z,10.40
2019-05-22T12:45:23.470Z,15.30
2019-05-22T12:47:53.389Z,16.90
2019-05-22T12:50:22.478Z,11.00
2019-05-22T12:52:52.078Z,12.53
2019-05-22T12:55:21.432Z,11.22
2019-05-22T12:57:50.788Z,15.43
2019-05-22T13:00:22.411Z,14.28
2019-05-22T13:02:52.102Z,11.40
2019-05-22T13:05:21.617Z,9.08
2019-05-22T13:07:51.700Z,18.40
2019-05-22T13:10:21.357Z,14.15
2019-05-22T13:12:50.196Z,9.38
2019-05-22T13:15:19.937Z,10.10
2019-05-22T13:17:49.091Z,9.20
2019-05-22T13:20:40.632Z,9.18
2019-05-22T13:22:55.054Z,12.13
2019-05-22T13:25:26.198Z,7.22
2019-05-22T13:27:55.175Z,9.70
2019-05-22T13:30:28.731Z,10.65
2019-05-22T13:32:57.116Z,11.20
2019-05-22T13:35:28.079Z,6.72
2019-05-22T13:37:58.102Z,7.58
2019-05-22T13:40:28.782Z,7.62
2019-05-22T13:42:58.786Z,6.90
2019-05-22T13:45:30.195Z,8.88
2019-05-22T13:47:59.308Z,7.03
2019-05-22T13:50:29.932Z,8.33
2019-05-22T13:53:00.598Z,10.10
2019-05-22T13:55:30.139Z,7.92
2019-05-22T13:57:59.795Z,8.53
2019-05-22T14:00:28.816Z,8.65
2019-05-22T14:02:58.063Z,10.35
2019-05-22T14:05:28.899Z,14.28
2019-05-22T14:07:58.074Z,9.13
2019-05-22T14:10:27.907Z,8.70
2019-05-22T14:12:57.191Z,9.80
2019-05-22T14:15:26.413Z,9.00
2019-05-22T14:17:55.729Z,8.20
2019-05-22T14:20:25.573Z,11.40
2019-05-22T14:22:54.733Z,8.30
2019-05-22T14:25:25.747Z,9.85
2019-05-22T14:27:54.888Z,8.98
2019-05-22T14:30:25.403Z,10.45
2019-05-22T14:32:54.613Z,8.48
2019-05-22T14:35:25.627Z,12.30
2019-05-22T14:37:54.649Z,12.07
2019-05-22T14:40:23.495Z,8.08
2019-05-22T14:42:52.551Z,10.58
2019-05-22T14:45:21.571Z,6.37
2019-05-22T14:47:50.260Z,6.92
2019-05-22T14:50:19.692Z,8.63
2019-05-22T14:52:48.462Z,6.50
2019-05-22T14:55:17.685Z,5.45
2019-05-22T14:57:47.502Z,6.83
2019-05-22T15:00:19.554Z,8.35
2019-05-22T15:02:54.294Z,9.35
2019-05-22T15:05:19.417Z,7.87
2019-05-22T15:07:48.086Z,8.35
2019-05-22T15:10:18.041Z,8.88
2019-05-22T15:12:47.942Z,8.90
2019-05-22T15:15:17.381Z,6.50
2019-05-22T15:17:46.320Z,5.45
2019-05-22T15:20:17.262Z,9.05
2019-05-22T15:22:46.103Z,7.00
2019-05-22T15:25:15.218Z,6.40
2019-05-22T15:27:44.599Z,6.72
2019-05-22T15:30:15.445Z,7.00
2019-05-22T15:32:44.641Z,6.08
2019-05-22T15:35:14.330Z,6.85
2019-05-22T15:37:43.472Z,10.53
2019-05-22T15:40:12.563Z,7.60
2019-05-22T15:42:43.800Z,9.00
2019-05-22T15:45:16.040Z,7.72
2019-05-22T15:47:56.853Z,6.97
2019-05-22T15:50:26.626Z,7.30
2019-05-22T15:53:01.352Z,5.40
2019-05-22T15:55:31.220Z,6.35
2019-05-22T15:58:01.733Z,4.75
2019-05-22T16:00:33.668Z,5.50
2019-05-22T16:03:11.064Z,5.55
2019-05-22T16:05:41.579Z,6.45
2019-05-22T16:08:11.243Z,7.15
2019-05-22T16:10:42.956Z,7.80
2019-05-22T16:13:16.393Z,6.17
2019-05-22T16:15:49.001Z,4.87
2019-05-22T16:18:22.114Z,5.87
2019-05-22T16:23:21.453Z,3.75
2019-05-22T16:25:52.343Z,10.10
2019-05-22T16:28:22.541Z,11.48
2019-05-22T16:30:52.328Z,4.33
2019-05-22T16:33:23.623Z,7.53
2019-05-22T16:35:52.851Z,3.70
2019-05-22T16:38:23.446Z,5.30
2019-05-22T16:40:52.781Z,12.28
2019-05-22T16:43:21.614Z,7.70
2019-05-22T16:45:51.660Z,8.95
2019-05-22T16:48:29.152Z,12.70
2019-05-22T16:50:52.610Z,9.28
2019-05-22T16:53:23.409Z,4.08
2019-05-22T16:55:52.227Z,6.47
2019-05-22T16:58:21.195Z,4.95
2019-05-22T17:00:50.015Z,5.80
2019-05-22T17:03:19.617Z,6.55
2019-05-22T17:05:48.379Z,4.35
2019-05-22T17:08:18.469Z,9.20
2019-05-22T17:10:48.672Z,4.40
2019-05-22T17:13:18.382Z,5.85
2019-05-22T17:15:47.366Z,4.05
2019-05-22T17:18:17.097Z,3.42
2019-05-22T17:20:46.951Z,8.90
2019-05-22T17:23:16.546Z,5.95
2019-05-22T17:25:45.829Z,4.42
2019-05-22T17:28:16.198Z,9.85
2019-05-22T17:30:46.116Z,5.50
2019-05-22T17:33:15.230Z,6.78
2019-05-22T17:35:45.174Z,6.92
2019-05-22T17:38:15.038Z,3.60
2019-05-22T17:40:44.483Z,3.75
2019-05-22T17:43:14.685Z,3.70
2019-05-22T17:45:44.717Z,5.65
2019-05-22T17:48:15.180Z,4.85
2019-05-22T17:50:44.998Z,3.67
2019-05-22T17:53:13.803Z,3.92
2019-05-22T17:55:43.944Z,2.87
2019-05-22T17:58:13.249Z,3.90
2019-05-22T18:00:45.524Z,5.30
2019-05-22T18:03:15.389Z,4.90
2019-05-22T18:05:44.237Z,6.67
2019-05-22T18:08:13.330Z,7.28
2019-05-22T18:10:44.250Z,4.90
2019-05-22T18:13:15.172Z,7.05
2019-05-22T18:15:43.915Z,5.53
2019-05-22T18:18:12.880Z,3.87
2019-05-22T18:20:43.603Z,6.03
2019-05-22T18:23:12.014Z,3.83
2019-05-22T18:25:40.741Z,8.63
2019-05-22T18:28:10.816Z,5.78
2019-05-22T18:30:41.592Z,8.70
2019-05-22T18:33:10.618Z,5.42
2019-05-22T18:35:39.717Z,6.45
2019-05-22T18:38:08.768Z,5.75
2019-05-22T18:40:37.605Z,5.83
2019-05-22T18:43:06.348Z,4.33
2019-05-22T18:45:36.329Z,4.10
2019-05-22T18:48:05.798Z,5.80
2019-05-22T18:50:35.534Z,4.08
2019-05-22T18:53:04.705Z,4.05
2019-05-22T18:55:33.613Z,11.83
2019-05-22T18:58:02.765Z,5.28
2019-05-22T19:00:32.863Z,5.78
2019-05-22T19:03:01.615Z,4.00
2019-05-22T19:05:33.649Z,4.10
2019-05-22T19:08:02.417Z,5.12
2019-05-22T19:10:31.742Z,7.37
2019-05-22T19:13:00.684Z,5.47
2019-05-22T19:15:29.779Z,7.53
2019-05-22T19:17:58.609Z,5.80
2019-05-22T19:20:27.439Z,7.87
2019-05-22T19:23:00.808Z,7.50
2019-05-22T19:25:27.505Z,7.67
2019-05-22T19:27:56.833Z,8.25
2019-05-22T19:30:26.229Z,7.62
2019-05-22T19:32:55.068Z,6.05
2019-05-22T19:35:23.751Z,5.60
2019-05-22T19:37:52.493Z,6.42
2019-05-22T19:40:21.918Z,5.67
2019-05-22T19:42:50.976Z,7.08
2019-05-22T19:45:19.994Z,9.10
2019-05-22T19:47:55.761Z,8.05
2019-05-22T19:50:25.269Z,7.33
2019-05-22T19:52:55.508Z,8.13
2019-05-22T19:55:27.660Z,9.70
2019-05-22T19:57:57.157Z,5.80
2019-05-22T20:00:26.360Z,8.33
2019-05-22T20:02:56.083Z,10.90
2019-05-22T20:05:25.496Z,9.75
2019-05-22T20:07:54.819Z,10.18
2019-05-22T20:10:23.943Z,8.68
2019-05-22T20:12:52.822Z,7.97
2019-05-22T20:15:22.559Z,11.70
2019-05-22T20:17:51.304Z,8.18
2019-05-22T20:20:20.805Z,11.63
2019-05-22T20:22:50.309Z,8.58
2019-05-22T20:25:20.408Z,14.45
2019-05-22T20:27:49.095Z,10.32
2019-05-22T20:30:20.154Z,12.25
2019-05-22T20:32:49.951Z,10.00
2019-05-22T20:35:18.821Z,12.03
2019-05-22T20:37:48.852Z,7.90
2019-05-22T20:40:19.182Z,10.98
2019-05-22T20:42:48.209Z,8.43
2019-05-22T20:45:21.349Z,11.95
2019-05-22T20:47:57.413Z,8.60
2019-05-22T20:50:26.755Z,12.45
2019-05-22T20:52:56.064Z,13.38
2019-05-22T20:55:25.110Z,10.58
2019-05-22T20:57:54.144Z,10.82
2019-05-22T21:00:23.396Z,11.25
2019-05-22T21:02:58.279Z,16.23
2019-05-22T21:05:27.518Z,14.00
2019-05-22T21:07:59.933Z,17.20
2019-05-22T21:10:29.868Z,21.20
2019-05-22T21:12:58.830Z,13.25
2019-05-22T21:15:29.475Z,15.28
2019-05-22T21:17:58.830Z,14.83
2019-05-22T21:20:30.493Z,16.77
2019-05-22T21:22:59.823Z,16.37
2019-05-22T21:25:29.415Z,13.75
2019-05-22T21:27:58.455Z,15.58
2019-05-22T21:30:27.889Z,16.75
2019-05-22T21:32:56.857Z,18.10
2019-05-22T21:35:25.980Z,14.13
2019-05-22T21:37:55.645Z,15.75
2019-05-22T21:40:25.162Z,20.90
2019-05-22T21:42:55.451Z,19.50
2019-05-22T21:45:25.561Z,19.90
2019-05-22T21:47:54.599Z,16.17
2019-05-22T21:50:23.607Z,23.15
2019-05-22T21:52:52.987Z,18.62
2019-05-22T21:55:21.896Z,15.28
2019-05-22T21:57:51.013Z,19.45
2019-05-22T22:00:36.925Z,16.00
2019-05-22T22:03:05.871Z,14.53
2019-05-22T22:05:34.668Z,17.12
2019-05-22T22:08:03.794Z,17.85
2019-05-22T22:10:32.487Z,19.07
2019-05-22T22:13:01.596Z,17.62
2019-05-22T22:15:31.591Z,18.12
2019-05-22T22:18:00.276Z,21.48
2019-05-22T22:20:28.977Z,25.25
2019-05-22T22:22:58.214Z,22.15
2019-05-22T22:25:27.505Z,19.50
2019-05-22T22:27:56.624Z,22.58
2019-05-22T22:30:29.987Z,16.23
2019-05-22T22:33:01.150Z,15.60
2019-05-22T22:35:31.512Z,21.95
2019-05-22T22:38:00.674Z,16.32
2019-05-22T22:40:29.793Z,15.32
2019-05-22T22:43:00.760Z,15.28
2019-05-22T22:45:39.796Z,21.73
2019-05-22T22:48:09.614Z,19.90
2019-05-22T22:50:40.309Z,15.85
2019-05-22T22:53:10.452Z,17.80
2019-05-22T22:55:40.358Z,20.15
2019-05-22T22:58:17.353Z,17.77
2019-05-22T23:00:43.347Z,19.93
2019-05-22T23:03:13.604Z,26.60
2019-05-22T23:05:44.520Z,19.65
2019-05-22T23:08:16.903Z,20.30
2019-05-22T23:10:46.187Z,21.27
2019-05-22T23:13:15.985Z,27.60
2019-05-22T23:15:46.407Z,22.37
2019-05-22T23:18:29.965Z,27.17
2019-05-22T23:23:25.259Z,16.48
2019-05-22T23:25:54.218Z,19.00
2019-05-22T23:28:34.129Z,17.90
2019-05-22T23:30:54.580Z,19.95
2019-05-22T23:33:23.784Z,21.50
2019-05-22T23:35:53.626Z,19.35
2019-05-22T23:38:23.047Z,17.15
2019-05-22T23:40:53.247Z,24.40
2019-05-22T23:43:22.442Z,21.68
2019-05-22T23:45:51.600Z,16.37
2019-05-22T23:48:20.682Z,20.65
2019-05-22T23:50:49.396Z,20.25
2019-05-22T23:53:18.607Z,23.65
2019-05-22T23:55:48.794Z,26.45
2019-05-22T23:58:20.145Z,27.40
